Time;durP1;ratioP1;P1;durP2;ratioP2;P2;SDS_P1;SDS_P2;PMS_P1;PMS_P2;Temp;Humidity;BMP_temperature;BMP_pressure;BME280_temperature;BME280_humidity;BME280_pressure;Samples;Min_cycle;Max_cycle;Signal;HPM_P1;HPM_P2
2023/11/21 00:03:38;;;;;;;0.63;0.40;;;;;;;8.50;100.00;150809.00;10450898;28;20106;-70
2023/11/21 00:08:39;;;;;;;0.50;0.40;;;;;;;8.41;100.00;150785.78;10467746;28;20408;-70
2023/11/21 00:13:41;;;;;;;0.50;0.40;;;;;;;8.35;100.00;150772.88;10450692;28;20045;-70
2023/11/21 00:18:43;;;;;;;1.65;0.60;;;;;;;8.40;100.00;150784.50;10467467;28;20045;-71
2023/11/21 00:23:45;;;;;;;1.30;0.77;;;;;;;8.41;100.00;150785.78;10450960;28;20119;-71
2023/11/21 00:28:46;;;;;;;0.50;0.50;;;;;;;8.39;100.00;150781.94;10465981;28;20123;-71
2023/11/21 00:33:48;;;;;;;1.02;0.77;;;;;;;8.50;100.00;150810.31;10431086;28;20045;-70
2023/11/21 00:38:50;;;;;;;1.00;0.60;;;;;;;8.44;100.00;150793.53;10446834;28;20055;-71
2023/11/21 00:43:52;;;;;;;1.45;0.73;;;;;;;8.44;100.00;150793.53;10432524;28;20501;-70
2023/11/21 00:48:55;;;;;;;1.10;0.82;;;;;;;8.43;100.00;150790.97;10464464;28;20103;-71
2023/11/21 00:53:58;;;;;;;1.25;0.70;;;;;;;8.32;100.00;150763.84;10444515;28;20100;-71
2023/11/21 00:59:00;;;;;;;1.25;0.52;;;;;;;8.39;100.00;150780.66;10463233;28;20093;-71
2023/11/21 01:04:02;;;;;;;0.93;0.63;;;;;;;8.42;100.00;150789.69;10447280;28;20507;-71
2023/11/21 01:09:08;;;;;;;1.38;0.70;;;;;;;8.44;100.00;150793.53;10446259;28;20044;-71
2023/11/21 01:14:10;;;;;;;0.70;0.63;;;;;;;8.43;100.00;150792.25;10465650;28;20111;-70
2023/11/21 01:19:12;;;;;;;0.50;0.50;;;;;;;8.29;100.00;150757.41;10463316;28;20044;-72
2023/11/21 01:24:14;;;;;;;1.00;0.43;;;;;;;8.40;100.00;150784.50;10446428;28;20045;-70
2023/11/21 01:29:16;;;;;;;1.70;0.80;;;;;;;8.37;100.00;150776.81;10445435;28;20041;-71
2023/11/21 01:34:18;;;;;;;1.73;0.70;;;;;;;8.37;100.00;150776.81;10428295;28;20037;-72
2023/11/21 01:39:23;;;;;;;1.45;0.80;;;;;;;8.38;100.00;150778.09;10462509;28;20045;-70
2023/11/21 01:44:25;;;;;;;0.90;0.77;;;;;;;8.40;100.00;150784.50;10461696;28;20029;-71
2023/11/21 01:49:27;;;;;;;1.20;0.90;;;;;;;8.32;100.00;150763.84;10520908;22;20043;-76
2023/11/21 01:54:31;;;;;;;1.23;0.82;;;;;;;8.42;100.00;150789.69;10567234;28;20135;-77
2023/11/21 01:59:37;;;;;;;0.98;0.73;;;;;;;8.35;100.00;150771.59;10567931;28;20047;-75
2023/11/21 02:04:39;;;;;;;0.87;0.67;;;;;;;8.39;100.00;150780.66;10583779;28;20065;-77
2023/11/21 02:09:42;;;;;;;3.40;0.70;;;;;;;8.32;100.00;150765.16;10585435;28;20334;-73
2023/11/21 02:14:44;;;;;;;1.92;0.75;;;;;;;8.25;100.00;150747.09;10584193;28;20050;-72
2023/11/21 02:19:50;;;;;;;0.98;0.60;;;;;;;8.29;100.00;150757.41;10584842;28;20123;-72
2023/11/21 02:24:52;;;;;;;1.00;0.65;;;;;;;8.09;100.00;150707.13;10584050;28;20067;-72
2023/11/21 02:29:54;;;;;;;1.40;0.80;;;;;;;8.01;100.00;150686.53;10584538;28;20414;-73
2023/11/21 02:34:56;;;;;;;2.45;0.85;;;;;;;8.21;100.00;150736.78;10583621;28;20057;-72
2023/11/21 02:39:59;;;;;;;1.52;0.60;;;;;;;8.25;100.00;150745.81;10584866;28;20084;-73
2023/11/21 02:45:01;;;;;;;0.63;0.55;;;;;;;8.13;100.00;150714.88;10583185;28;20067;-74
2023/11/21 02:50:03;;;;;;;1.50;0.68;;;;;;;8.06;100.00;150699.44;10567616;28;20391;-72
2023/11/21 02:55:07;;;;;;;1.20;0.80;;;;;;;7.87;100.00;150649.16;10583690;28;20044;-72
2023/11/21 03:00:14;;;;;;;2.10;0.80;;;;;;;7.78;100.00;150628.53;10582680;28;20525;-72
2023/11/21 03:05:16;;;;;;;1.58;0.82;;;;;;;7.69;100.00;150604.06;10584359;28;20507;-72
2023/11/21 03:10:20;;;;;;;3.83;1.10;;;;;;;7.67;100.00;150598.94;10583285;28;20031;-73
2023/11/21 03:15:21;;;;;;;2.03;0.80;;;;;;;7.53;100.00;150565.44;10582383;28;20123;-72
2023/11/21 03:20:23;;;;;;;2.83;0.80;;;;;;;7.52;100.00;150561.53;10581340;28;20156;-73
2023/11/21 03:25:25;;;;;;;1.02;0.60;;;;;;;7.44;100.00;150542.25;10583475;28;20035;-72
2023/11/21 03:30:27;;;;;;;1.55;0.73;;;;;;;7.49;100.00;150553.84;10583280;28;20067;-72
2023/11/21 03:35:29;;;;;;;1.52;0.82;;;;;;;7.38;100.00;150526.75;10581538;28;20158;-72
2023/11/21 03:40:31;;;;;;;1.50;0.93;;;;;;;7.48;100.00;150552.56;10583760;28;20065;-72
2023/11/21 03:45:33;;;;;;;1.40;1.00;;;;;;;7.52;100.00;150562.81;10564085;28;20126;-72
2023/11/21 03:50:35;;;;;;;0.73;0.70;;;;;;;7.55;100.00;150569.28;10582417;28;20075;-72
2023/11/21 03:55:37;;;;;;;1.38;0.85;;;;;;;7.57;100.00;150575.75;10582709;28;20043;-73
2023/11/21 04:00:38;;;;;;;1.70;0.90;;;;;;;7.56;100.00;150573.13;10583207;28;20047;-72
2023/11/21 04:05:41;;;;;;;1.67;1.00;;;;;;;7.47;100.00;150548.66;10582134;28;20115;-72
2023/11/21 04:10:43;;;;;;;1.33;0.95;;;;;;;7.53;100.00;150565.44;10582521;28;20490;-72
2023/11/21 04:15:44;;;;;;;2.15;1.02;;;;;;;7.66;100.00;150596.31;10581395;28;20500;-74
2023/11/21 04:20:48;;;;;;;2.10;1.00;;;;;;;7.56;100.00;150573.13;10582064;28;20047;-72
2023/11/21 04:25:50;;;;;;;1.88;0.88;;;;;;;7.48;100.00;150552.56;10581763;28;20051;-72
2023/11/21 04:30:52;;;;;;;1.55;1.00;;;;;;;7.43;100.00;150539.63;10586672;28;20054;-73
2023/11/21 04:35:54;;;;;;;2.67;0.90;;;;;;;7.34;100.00;150516.44;10588108;28;20035;-72
2023/11/21 04:40:55;;;;;;;1.30;1.05;;;;;;;7.38;100.00;150526.75;10588903;28;20126;-72
2023/11/21 04:45:57;;;;;;;5.63;1.80;;;;;;;7.21;100.00;150482.97;10589390;28;20175;-73
2023/11/21 04:50:59;;;;;;;3.67;1.60;;;;;;;7.46;100.00;150547.38;10589953;28;20388;-73
2023/11/21 04:56:01;;;;;;;4.97;1.45;;;;;;;7.36;100.00;150521.63;10589053;28;20078;-72
2023/11/21 05:01:03;;;;;;;5.70;1.42;;;;;;;7.39;100.00;150528.03;10588269;28;20449;-73
2023/11/21 05:06:12;;;;;;;3.50;1.20;;;;;;;7.56;100.00;150573.13;10587036;28;20044;-72
2023/11/21 05:11:23;;;;;;;1.90;1.30;;;;;;;7.52;100.00;150562.81;10589482;28;20138;-72
2023/11/21 05:16:27;;;;;;;3.50;1.30;;;;;;;7.63;100.00;150588.63;10588411;28;20042;-73
2023/11/21 05:21:32;;;;;;;2.15;1.40;;;;;;;7.56;100.00;150573.13;10588386;28;20043;-73
2023/11/21 05:26:34;;;;;;;3.35;1.33;;;;;;;7.58;100.00;150578.31;10587622;28;20032;-72
2023/11/21 05:31:36;;;;;;;2.60;1.58;;;;;;;7.63;100.00;150588.63;10589138;28;20071;-73
2023/11/21 05:36:38;;;;;;;2.85;1.50;;;;;;;7.63;100.00;150588.63;10587013;28;20387;-73
2023/11/21 05:41:40;;;;;;;2.75;1.42;;;;;;;7.61;100.00;150584.72;10586981;28;20506;-73
2023/11/21 05:46:43;;;;;;;2.33;1.33;;;;;;;7.67;100.00;150600.22;10586842;28;20044;-73
2023/11/21 05:51:45;;;;;;;2.83;1.50;;;;;;;7.49;100.00;150555.13;10586986;28;20130;-73
2023/11/21 05:56:46;;;;;;;3.80;1.17;;;;;;;7.47;100.00;150548.66;10584901;28;20089;-73
2023/11/21 06:01:48;;;;;;;2.50;2.30;;;;;;;7.29;100.00;150504.88;10586023;28;20082;-73
2023/11/21 06:06:52;;;;;;;3.08;1.90;;;;;;;7.57;100.00;150574.47;10585253;28;20040;-73
2023/11/21 06:11:54;;;;;;;2.58;1.33;;;;;;;7.49;100.00;150553.84;10586546;28;20506;-73
2023/11/21 06:16:57;;;;;;;2.17;1.38;;;;;;;7.25;100.00;150493.28;10585384;28;20031;-73
2023/11/21 06:21:59;;;;;;;2.58;1.77;;;;;;;7.28;100.00;150502.31;10586418;28;20054;-74
2023/11/21 06:27:04;;;;;;;2.40;2.03;;;;;;;7.40;100.00;150530.66;10586137;27;20046;-73
2023/11/21 06:32:06;;;;;;;3.58;1.90;;;;;;;7.51;100.00;150560.25;10607691;27;20039;-73
2023/11/21 06:37:08;;;;;;;4.07;2.13;;;;;;;7.55;100.00;150570.56;10608076;27;20051;-72
2023/11/21 06:42:10;;;;;;;2.28;2.08;;;;;;;7.59;100.00;150580.88;10585027;28;20078;-72
2023/11/21 06:47:12;;;;;;;5.53;3.80;;;;;;;7.51;100.00;150560.25;10580987;28;20081;-73
2023/11/21 06:52:14;;;;;;;3.72;2.97;;;;;;;7.44;100.00;150540.97;10584094;28;20108;-74
2023/11/21 06:57:16;;;;;;;6.55;5.63;;;;;;;7.43;100.00;150539.63;10588131;28;20039;-73
2023/11/21 07:02:18;;;;;;;5.13;2.65;;;;;;;7.39;100.00;150528.03;10580248;28;20043;-73
2023/11/21 07:07:20;;;;;;;3.45;2.10;;;;;;;7.54;100.00;150568.00;10543977;28;20520;-73
2023/11/21 07:12:23;;;;;;;5.13;4.20;;;;;;;7.40;100.00;150530.66;10545713;28;20040;-73
2023/11/21 07:17:25;;;;;;;23.48;15.68;;;;;;;7.39;100.00;150528.03;10543494;28;20112;-73
2023/11/21 07:22:27;;;;;;;10.50;7.35;;;;;;;7.57;100.00;150575.75;10540496;28;20054;-72
2023/11/21 07:27:29;;;;;;;35.95;18.27;;;;;;;7.57;100.00;150574.47;10544348;28;20059;-73
2023/11/21 07:32:31;;;;;;;18.60;12.77;;;;;;;7.55;100.00;150569.28;10543007;28;20043;-73
2023/11/21 07:37:33;;;;;;;17.27;14.13;;;;;;;7.59;100.00;150579.59;10542123;28;20043;-73
2023/11/21 07:42:35;;;;;;;5.90;4.38;;;;;;;7.72;100.00;150611.81;10542493;28;20048;-73
2023/11/21 07:47:38;;;;;;;74.13;35.10;;;;;;;7.99;100.00;150680.09;10555008;22;20561;-71
2023/11/21 07:52:41;;;;;;;7.97;5.70;;;;;;;8.03;100.00;150690.41;10498622;28;20082;-71
2023/11/21 07:57:43;;;;;;;5.35;4.38;;;;;;;8.03;100.00;150691.69;10498136;28;20047;-72
2023/11/21 08:02:46;;;;;;;12.65;10.07;;;;;;;8.11;100.00;150711.03;10500329;28;20082;-72
2023/11/21 08:07:48;;;;;;;10.32;9.23;;;;;;;8.13;100.00;150714.88;10504322;28;20487;-72
2023/11/21 08:12:50;;;;;;;8.05;6.97;;;;;;;7.89;100.00;150655.59;10505693;28;20045;-72
2023/11/21 08:17:52;;;;;;;9.48;8.20;;;;;;;8.00;100.00;150683.94;10507406;28;20476;-72
2023/11/21 08:22:56;;;;;;;8.05;5.28;;;;;;;7.69;100.00;150604.06;10505582;28;20495;-72
2023/11/21 08:27:59;;;;;;;7.50;4.22;;;;;;;7.63;100.00;150589.91;10505505;28;20121;-73
2023/11/21 08:33:02;;;;;;;5.88;4.75;;;;;;;7.74;100.00;150618.22;10505840;28;20415;-72
2023/11/21 08:38:05;;;;;;;7.97;4.88;;;;;;;7.86;100.00;150646.59;10505143;28;20040;-73
2023/11/21 08:43:08;;;;;;;6.68;4.38;;;;;;;7.82;100.00;150638.84;10503483;28;20094;-71
2023/11/21 08:48:11;;;;;;;6.95;4.10;;;;;;;7.71;100.00;150609.25;10505146;28;20402;-71
2023/11/21 08:53:13;;;;;;;5.63;5.13;;;;;;;7.57;100.00;150575.75;10503509;28;20052;-72
2023/11/21 08:58:15;;;;;;;5.40;3.95;;;;;;;7.45;100.00;150544.81;10504844;28;20106;-72
2023/11/21 09:03:17;;;;;;;5.45;3.65;;;;;;;7.51;100.00;150558.97;10503586;28;20052;-71
2023/11/21 09:08:19;;;;;;;6.63;3.42;;;;;;;7.49;100.00;150553.84;10502416;28;20048;-71
2023/11/21 09:13:21;;;;;;;4.63;3.15;;;;;;;7.43;100.00;150539.63;10502824;28;20045;-71
2023/11/21 09:18:25;;;;;;;4.93;3.70;;;;;;;7.28;100.00;150501.03;10524410;28;20450;-71
2023/11/21 09:23:27;;;;;;;4.90;3.42;;;;;;;7.31;100.00;150508.75;10509892;28;20047;-71
2023/11/21 09:28:29;;;;;;;3.47;3.17;;;;;;;7.25;100.00;150494.56;10544975;28;20056;-72
2023/11/21 09:33:31;;;;;;;4.55;2.83;;;;;;;7.31;100.00;150508.75;10527029;28;20051;-71
2023/11/21 09:38:33;;;;;;;3.33;2.22;;;;;;;7.27;100.00;150498.47;10543951;28;20119;-71
2023/11/21 09:43:36;;;;;;;2.42;2.00;;;;;;;7.28;100.00;150502.31;10543284;28;20052;-71
2023/11/21 09:48:39;;;;;;;3.03;2.67;;;;;;;7.01;100.00;150432.78;10541399;28;20065;-70
2023/11/21 09:53:44;;;;;;;1.75;1.30;;;;;;;6.90;100.00;150404.44;10540423;28;20043;-71
2023/11/21 09:58:46;;;;;;;1.42;1.20;;;;;;;6.75;100.00;150368.38;10504475;28;20455;-72
2023/11/21 10:03:49;;;;;;;2.35;2.15;;;;;;;6.55;100.00;150318.22;10486152;28;20068;-70
2023/11/21 10:08:56;;;;;;;4.55;4.13;;;;;;;6.40;100.00;150279.56;10500976;28;20037;-70
2023/11/21 10:14:01;;;;;;;3.80;3.50;;;;;;;6.04;100.00;150189.50;10500855;28;20076;-71
2023/11/21 10:19:04;;;;;;;6.45;4.93;;;;;;;5.96;100.00;150168.91;10500165;28;20041;-70
2023/11/21 10:24:12;;;;;;;6.85;6.00;;;;;;;5.81;100.00;150131.56;10498779;28;20052;-71
2023/11/21 10:29:16;;;;;;;6.25;5.43;;;;;;;5.73;100.00;150110.97;10471708;28;20048;-71
2023/11/21 10:34:19;;;;;;;6.35;5.70;;;;;;;5.78;100.00;150122.56;10459084;28;20049;-71
2023/11/21 10:39:23;;;;;;;7.63;5.07;;;;;;;5.59;100.00;150073.69;10458110;28;20128;-71
2023/11/21 10:44:26;;;;;;;6.20;5.05;;;;;;;5.39;100.00;150023.50;10486055;28;20043;-71
2023/11/21 10:49:28;;;;;;;6.57;5.80;;;;;;;5.53;100.00;150060.84;10509017;28;20040;-71
2023/11/21 10:54:30;;;;;;;6.90;5.45;;;;;;;5.50;100.00;150053.13;10501360;28;20048;-71
2023/11/21 10:59:32;;;;;;;5.00;3.92;;;;;;;5.26;100.00;149991.38;10501020;28;20123;-71
2023/11/21 11:04:37;;;;;;;4.93;4.30;;;;;;;5.27;100.00;149995.25;10499177;28;20049;-70
2023/11/21 11:09:40;;;;;;;6.90;3.60;;;;;;;5.34;100.00;150010.66;10498700;28;20032;-70
2023/11/21 11:14:43;;;;;;;4.93;3.45;;;;;;;5.19;100.00;149974.66;10498405;28;20076;-71
2023/11/21 11:19:46;;;;;;;3.33;2.83;;;;;;;5.23;100.00;149983.69;10497880;28;20041;-71
2023/11/21 11:25:13;;;;;;;4.65;4.05;;;;;;;5.03;100.00;149934.78;10497963;28;20135;-70
2023/11/21 11:30:41;;;;;;;;;;;;;;;5.06;100.00;149941.25;10498530;28;20090;-70
2023/11/21 11:35:56;;;;;;;4.47;3.42;;;;;;;5.07;100.00;149945.09;10498900;28;19920;-71
2023/11/21 11:41:04;;;;;;;4.53;3.75;;;;;;;5.08;100.00;149946.38;10505454;28;20072;-71
2023/11/21 11:46:05;;;;;;;5.03;4.13;;;;;;;4.97;100.00;149919.38;10509932;28;20033;-72
2023/11/21 11:51:11;;;;;;;5.18;4.47;;;;;;;4.86;100.00;149889.81;10506899;28;20154;-71
2023/11/21 11:56:31;;;;;;;6.07;5.35;;;;;;;4.86;100.00;149889.81;10506217;28;20033;-71
2023/11/21 12:01:34;;;;;;;5.72;5.13;;;;;;;4.82;100.00;149880.78;10508404;28;20055;-71
2023/11/21 12:06:39;;;;;;;5.70;5.10;;;;;;;4.82;100.00;149880.78;10505009;28;20417;-71
2023/11/21 12:11:43;;;;;;;7.10;6.07;;;;;;;4.80;100.00;149875.69;10505177;28;20044;-71
2023/11/21 12:16:45;;;;;;;8.32;6.78;;;;;;;4.74;100.00;149860.28;10506312;28;20057;-71
2023/11/21 12:21:48;;;;;;;7.07;5.57;;;;;;;4.79;100.00;149874.41;10505515;28;20051;-71
2023/11/21 12:26:50;;;;;;;6.55;5.85;;;;;;;4.70;100.00;149850.00;10506192;28;20041;-71
2023/11/21 12:31:52;;;;;;;7.03;6.20;;;;;;;4.65;100.00;149838.44;10505740;28;20127;-71
2023/11/21 12:36:55;;;;;;;7.68;6.22;;;;;;;4.76;100.00;149865.41;10505657;28;20036;-72
2023/11/21 12:41:57;;;;;;;7.18;6.47;;;;;;;4.75;100.00;149862.84;10507374;28;20044;-71
2023/11/21 12:46:59;;;;;;;7.35;5.85;;;;;;;4.79;100.00;149873.13;10503858;28;20068;-71
2023/11/21 12:52:03;;;;;;;7.53;6.55;;;;;;;4.80;100.00;149875.69;10503176;28;20044;-71
2023/11/21 12:57:08;;;;;;;7.90;6.75;;;;;;;4.87;100.00;149892.38;10504838;28;20423;-71
2023/11/21 13:02:15;;;;;;;6.90;6.20;;;;;;;4.77;100.00;149867.94;10504484;28;20052;-71
2023/11/21 13:07:17;;;;;;;7.45;6.35;;;;;;;4.62;100.00;149830.69;10504451;28;20072;-71
2023/11/21 13:12:24;;;;;;;7.35;6.43;;;;;;;4.81;100.00;149879.53;10503697;28;20085;-71
2023/11/21 13:17:26;;;;;;;;;;;;;;;4.81;100.00;149879.53;10504283;28;20041;-70
2023/11/21 13:22:28;;;;;;;6.35;5.43;;;;;;;4.41;100.00;149778.00;10502975;28;19920;-71
2023/11/21 13:27:32;;;;;;;7.47;5.90;;;;;;;4.47;100.00;149793.44;10502902;28;20037;-71
2023/11/21 13:32:34;;;;;;;7.63;6.40;;;;;;;4.44;100.00;149784.44;10503478;28;20044;-70
2023/11/21 13:37:36;;;;;;;7.68;6.82;;;;;;;4.33;100.00;149757.44;10502700;28;20064;-70
2023/11/21 13:42:38;;;;;;;7.03;6.32;;;;;;;4.32;100.00;149754.88;10503601;28;20049;-70
2023/11/21 13:47:40;;;;;;;8.50;6.65;;;;;;;4.30;100.00;149751.03;10500955;28;20068;-70
2023/11/21 13:52:42;;;;;;;8.25;6.55;;;;;;;4.42;100.00;149780.56;10501573;22;20049;-74
2023/11/21 13:57:45;;;;;;;7.50;6.70;;;;;;;4.26;100.00;149740.75;10528896;28;20039;-74
2023/11/21 14:02:48;;;;;;;7.65;6.55;;;;;;;4.38;100.00;149770.28;10526320;28;20075;-74
2023/11/21 14:07:50;;;;;;;6.78;6.07;;;;;;;4.04;100.00;149685.50;10544426;28;20040;-74
2023/11/21 14:12:52;;;;;;;5.93;5.10;;;;;;;3.93;100.00;149657.22;10543091;28;20048;-74
2023/11/21 14:17:54;;;;;;;6.93;5.47;;;;;;;3.85;100.00;149635.41;10525387;28;20080;-74
2023/11/21 14:22:57;;;;;;;7.60;5.35;;;;;;;3.78;100.00;149618.72;10543811;28;20047;-76
2023/11/21 14:27:59;;;;;;;7.03;5.63;;;;;;;3.78;100.00;149618.72;10542966;28;20483;-74
2023/11/21 14:33:02;;;;;;;5.40;4.82;;;;;;;3.62;100.00;149577.63;10524614;28;20075;-73
2023/11/21 14:38:04;;;;;;;3.30;2.60;;;;;;;3.34;100.00;149508.28;10543026;28;20111;-74
2023/11/21 14:43:06;;;;;;;3.30;2.15;;;;;;;3.41;100.00;149526.28;10543252;28;20048;-73
2023/11/21 14:48:15;;;;;;;4.15;2.90;;;;;;;3.36;100.00;149512.13;10543375;28;20036;-73
2023/11/21 14:53:38;;;;;;;5.03;3.53;;;;;;;3.30;100.00;149498.03;10543862;28;20510;-74
2023/11/21 14:58:40;;;;;;;4.20;3.42;;;;;;;3.31;100.00;149499.31;10542921;28;20111;-74
2023/11/21 15:03:48;;;;;;;4.53;3.78;;;;;;;3.31;100.00;149499.31;10541843;28;20036;-73
2023/11/21 15:14:09;;;;;;;6.10;4.87;;;;;;;3.11;100.00;149450.53;10523195;28;20047;-73
2023/11/21 15:19:17;;;;;;;6.55;5.85;;;;;;;3.10;100.00;149446.66;10522999;28;20083;-73
2023/11/21 15:24:19;;;;;;;5.70;5.15;;;;;;;3.04;100.00;149432.56;10542778;28;20063;-72
2023/11/21 15:29:21;;;;;;;5.38;4.38;;;;;;;3.26;100.00;149487.75;10524473;28;20048;-73
2023/11/21 15:34:24;;;;;;;5.45;4.75;;;;;;;3.20;100.00;149473.66;10524655;28;20047;-73
2023/11/21 15:39:30;;;;;;;5.90;5.05;;;;;;;3.08;100.00;149442.81;10542098;28;20440;-73
2023/11/21 15:44:33;;;;;;;7.13;5.68;;;;;;;3.29;100.00;149495.47;10540002;28;20032;-73
2023/11/21 15:49:36;;;;;;;6.18;4.78;;;;;;;3.34;100.00;149507.03;10521911;28;20075;-73
2023/11/21 15:54:40;;;;;;;12.50;7.22;;;;;;;3.22;100.00;149478.75;10539858;28;20042;-72
2023/11/21 15:59:42;;;;;;;4.47;4.07;;;;;;;3.15;100.00;149459.53;10522394;28;20051;-72
2023/11/21 16:04:46;;;;;;;4.82;4.30;;;;;;;3.20;100.00;149472.38;10540171;28;20044;-72
2023/11/21 16:09:47;;;;;;;4.13;3.63;;;;;;;3.06;100.00;149437.72;10521938;28;20079;-72
2023/11/21 16:14:49;;;;;;;3.65;3.22;;;;;;;2.92;100.00;149401.75;10542337;28;20032;-73
2023/11/21 16:19:52;;;;;;;4.32;3.42;;;;;;;2.93;100.00;149405.63;10540684;28;20117;-71
2023/11/21 16:24:54;;;;;;;3.70;3.33;;;;;;;3.08;100.00;149441.53;10543160;28;20040;-71
2023/11/21 16:29:57;;;;;;;3.03;2.72;;;;;;;3.00;100.00;149423.56;10547127;28;20036;-72
2023/11/21 16:34:59;;;;;;;3.08;2.47;;;;;;;2.94;100.00;149408.19;10528020;28;20072;-72
2023/11/21 16:40:06;;;;;;;3.05;2.55;;;;;;;3.09;100.00;149445.38;10529574;28;20040;-72
2023/11/21 16:45:08;;;;;;;2.17;1.98;;;;;;;2.95;100.00;149410.72;10547614;28;20498;-72
2023/11/21 16:50:10;;;;;;;2.38;1.67;;;;;;;2.96;100.00;149412.00;10547499;28;20028;-72
2023/11/21 16:55:13;;;;;;;1.90;1.70;;;;;;;2.91;100.00;149399.19;10529375;28;20040;-72
2023/11/21 17:00:18;;;;;;;1.73;1.55;;;;;;;2.90;100.00;149397.91;10546970;28;20051;-72
2023/11/21 17:05:20;;;;;;;1.83;1.38;;;;;;;2.83;100.00;149378.66;10529279;28;20036;-72
2023/11/21 17:10:21;;;;;;;1.45;1.23;;;;;;;2.94;100.00;149408.19;10527793;28;20066;-71
2023/11/21 17:15:23;;;;;;;0.50;0.50;;;;;;;2.86;100.00;149386.38;10544185;28;20063;-73
2023/11/21 17:20:26;;;;;;;1.00;0.60;;;;;;;2.78;100.00;149367.09;10545192;28;20044;-72
2023/11/21 17:25:28;;;;;;;0.50;0.43;;;;;;;2.76;100.00;149362.00;10526907;28;20044;-72
2023/11/21 17:30:29;;;;;;;1.05;0.65;;;;;;;2.66;100.00;149337.63;10546731;28;20051;-73
2023/11/21 17:35:31;;;;;;;0.82;0.82;;;;;;;2.49;100.00;149295.28;10543810;28;20108;-73
2023/11/21 17:40:35;;;;;;;3.47;1.00;;;;;;;2.67;100.00;149340.16;10544102;28;20044;-73
2023/11/21 17:45:37;;;;;;;1.65;0.90;;;;;;;2.73;100.00;149354.28;10543561;28;20043;-73
2023/11/21 17:50:39;;;;;;;0.85;0.80;;;;;;;2.74;100.00;149356.81;10543663;28;20040;-72
2023/11/21 17:55:41;;;;;;;1.10;1.00;;;;;;;2.54;100.00;149306.81;10543676;28;20062;-72
2023/11/21 18:00:45;;;;;;;1.45;1.23;;;;;;;2.51;100.00;149299.09;10525000;28;20501;-72
2023/11/21 18:05:47;;;;;;;1.83;1.38;;;;;;;2.50;100.00;149296.53;10543327;28;20032;-71
2023/11/21 18:10:49;;;;;;;1.67;1.40;;;;;;;2.54;100.00;149306.81;10524675;28;20040;-72
2023/11/21 18:15:51;;;;;;;1.25;1.15;;;;;;;2.73;100.00;149355.56;10524229;28;20119;-72
2023/11/21 18:20:53;;;;;;;1.60;1.30;;;;;;;2.79;100.00;149369.72;10542992;28;20036;-72
2023/11/21 18:25:55;;;;;;;1.77;1.67;;;;;;;2.76;100.00;149363.25;10524908;28;20055;-72
2023/11/21 18:30:57;;;;;;;1.75;1.50;;;;;;;2.68;100.00;149342.72;10542581;28;20094;-72
2023/11/21 18:35:59;;;;;;;1.38;1.00;;;;;;;2.51;100.00;149300.38;10543136;28;20115;-72
2023/11/21 18:41:01;;;;;;;1.17;1.08;;;;;;;2.39;100.00;149268.31;10543553;28;20040;-72
2023/11/21 18:46:03;;;;;;;2.50;1.23;;;;;;;2.27;100.00;149240.13;10542415;28;20040;-72
2023/11/21 18:51:07;;;;;;;1.90;1.60;;;;;;;2.11;100.00;149197.78;10541752;28;20048;-73
2023/11/21 18:56:18;;;;;;;2.80;1.45;;;;;;;2.07;100.00;149188.78;10541521;28;20106;-73
2023/11/21 19:01:30;;;;;;;2.05;1.30;;;;;;;2.09;100.00;149193.94;10523799;28;20044;-73
2023/11/21 19:06:32;;;;;;;1.60;1.15;;;;;;;2.20;100.00;149220.84;10541674;28;20040;-73
2023/11/21 19:11:34;;;;;;;1.73;1.50;;;;;;;2.30;100.00;149245.22;10541100;28;20044;-73
2023/11/21 19:16:36;;;;;;;1.65;1.30;;;;;;;2.32;100.00;149250.38;10540850;28;20044;-73
2023/11/21 19:21:38;;;;;;;1.08;0.98;;;;;;;2.30;100.00;149245.22;10541310;28;20044;-72
2023/11/21 19:26:40;;;;;;;1.25;0.95;;;;;;;2.44;100.00;149281.19;10523205;28;20411;-73
2023/11/21 19:31:41;;;;;;;0.80;0.80;;;;;;;2.55;100.00;149309.38;10523897;28;20064;-71
2023/11/21 19:36:43;;;;;;;1.33;1.10;;;;;;;2.30;100.00;149246.50;10523536;28;20078;-73
2023/11/21 19:41:46;;;;;;;0.98;0.80;;;;;;;2.25;100.00;149233.69;10524344;28;20119;-73
2023/11/21 19:46:48;;;;;;;1.20;0.98;;;;;;;2.16;100.00;149211.88;10541835;28;20437;-72
2023/11/21 19:51:49;;;;;;;1.13;1.00;;;;;;;2.28;100.00;149242.66;10592802;22;20424;-77
2023/11/21 19:56:51;;;;;;;1.20;1.10;;;;;;;2.11;100.00;149197.78;10593062;28;20476;-76
2023/11/21 20:01:53;;;;;;;1.00;0.90;;;;;;;1.88;100.00;149141.34;10598667;28;20163;-75
2023/11/21 20:06:55;;;;;;;1.20;1.10;;;;;;;1.75;100.00;149108.03;10607275;28;20100;-76
2023/11/21 20:11:58;;;;;;;1.50;1.40;;;;;;;1.77;100.00;149113.13;10603296;28;20123;-76
2023/11/21 20:17:02;;;;;;;1.63;1.30;;;;;;;1.76;100.00;149110.56;10584726;28;20058;-76
2023/11/21 20:22:05;;;;;;;1.42;1.27;;;;;;;1.80;100.00;149119.56;10601546;28;20499;-77
2023/11/21 20:27:07;;;;;;;2.67;1.67;;;;;;;1.73;100.00;149102.91;10603763;28;20505;-76
2023/11/21 20:32:10;;;;;;;2.05;1.80;;;;;;;1.67;100.00;149088.78;10604882;28;20051;-77
2023/11/21 20:37:14;;;;;;;2.22;2.03;;;;;;;1.69;100.00;149092.66;10606346;28;20044;-76
2023/11/21 20:42:18;;;;;;;2.00;1.80;;;;;;;1.68;100.00;149091.38;10606703;28;20044;-76
2023/11/21 20:47:20;;;;;;;2.03;1.70;;;;;;;1.77;100.00;149113.13;10599851;28;20036;-76
2023/11/21 20:52:22;;;;;;;1.83;1.60;;;;;;;1.47;100.00;149038.81;10603581;28;20505;-77
2023/11/21 20:57:23;;;;;;;2.13;1.73;;;;;;;1.71;100.00;149097.75;10602894;28;20036;-75
2023/11/21 21:02:25;;;;;;;2.38;1.85;;;;;;;1.52;100.00;149050.34;10601190;28;20042;-76
2023/11/21 21:07:27;;;;;;;1.98;1.70;;;;;;;1.55;100.00;149058.03;10603020;28;20040;-76
2023/11/21 21:12:29;;;;;;;1.75;1.38;;;;;;;1.52;100.00;149051.63;10604822;28;20477;-76
2023/11/21 21:17:32;;;;;;;1.80;1.38;;;;;;;1.43;100.00;149027.28;10599139;28;20044;-76
2023/11/21 21:22:34;;;;;;;1.80;1.55;;;;;;;1.24;100.00;148981.16;10603230;28;20130;-75
2023/11/21 21:27:36;;;;;;;3.22;2.40;;;;;;;1.33;100.00;149002.94;10601711;28;20101;-76
2023/11/21 21:32:39;;;;;;;3.00;2.80;;;;;;;1.20;100.00;148970.88;10603089;28;20070;-77
2023/11/21 21:37:41;;;;;;;3.83;3.38;;;;;;;1.30;100.00;148995.22;10604833;28;20093;-76
2023/11/21 21:42:43;;;;;;;3.47;3.08;;;;;;;1.28;100.00;148990.06;10603243;28;20048;-76
2023/11/21 21:47:44;;;;;;;3.38;3.05;;;;;;;1.09;100.00;148941.41;10600671;28;20036;-76
2023/11/21 21:52:46;;;;;;;3.00;2.65;;;;;;;1.24;100.00;148981.16;10599508;28;20035;-76
2023/11/21 21:57:48;;;;;;;3.60;3.30;;;;;;;1.10;100.00;148945.22;10601481;28;20418;-76
2023/11/21 22:02:50;;;;;;;4.40;4.10;;;;;;;1.12;100.00;148949.09;10597104;28;20127;-69
2023/11/21 22:07:52;;;;;;;3.35;3.05;;;;;;;1.07;100.00;148936.28;10588392;28;20071;-69
2023/11/21 22:12:54;;;;;;;3.85;3.55;;;;;;;0.95;100.00;148908.09;10586632;28;20461;-68
2023/11/21 22:17:56;;;;;;;4.13;3.83;;;;;;;0.87;100.00;148886.31;10590441;28;20410;-69
2023/11/21 22:22:58;;;;;;;4.10;3.70;;;;;;;0.86;100.00;148883.75;10587327;28;20096;-69
2023/11/21 22:28:00;;;;;;;3.95;3.65;;;;;;;0.87;100.00;148886.31;10588452;28;20122;-70
2023/11/21 22:33:02;;;;;;;4.15;3.85;;;;;;;0.95;100.00;148908.09;10587966;28;20043;-69
2023/11/21 22:38:04;;;;;;;5.22;4.82;;;;;;;0.78;100.00;148863.25;10585851;28;20040;-69
2023/11/21 22:43:06;;;;;;;5.13;4.63;;;;;;;0.83;100.00;148876.06;10589517;28;20071;-69
2023/11/21 22:48:08;;;;;;;6.47;5.88;;;;;;;0.80;100.00;148869.66;10586838;28;20032;-69
2023/11/21 22:53:10;;;;;;;7.10;6.40;;;;;;;0.85;100.00;148882.47;10585831;28;20078;-69
2023/11/21 22:58:12;;;;;;;6.93;6.22;;;;;;;0.91;100.00;148896.56;10583107;28;20044;-69
2023/11/21 23:03:14;;;;;;;7.03;6.32;;;;;;;0.83;100.00;148876.06;10586740;28;20044;-69
2023/11/21 23:08:16;;;;;;;6.88;6.28;;;;;;;0.89;100.00;148891.47;10583600;28;20036;-68
2023/11/21 23:13:18;;;;;;;6.93;6.25;;;;;;;0.84;100.00;148879.94;10583798;28;20048;-69
2023/11/21 23:18:27;;;;;;;8.20;7.32;;;;;;;0.83;100.00;148877.31;10584244;28;20494;-70